createdAt,value
2022-12-24T00:00:25.577Z,99.90
2022-12-24T00:02:54.823Z,99.90
2022-12-24T00:05:22.892Z,99.90
2022-12-24T00:07:50.924Z,99.90
2022-12-24T00:10:18.899Z,99.90
2022-12-24T00:12:46.754Z,99.90
2022-12-24T00:15:14.614Z,99.90
2022-12-24T00:17:42.430Z,99.90
2022-12-24T00:20:12.052Z,99.90
2022-12-24T00:22:39.909Z,99.90
2022-12-24T00:25:08.371Z,99.90
2022-12-24T00:27:36.219Z,99.90
2022-12-24T00:30:04.519Z,99.90
2022-12-24T00:32:32.361Z,99.90
2022-12-24T00:35:00.180Z,99.90
2022-12-24T00:37:29.370Z,99.90
2022-12-24T00:39:57.208Z,99.90
2022-12-24T00:42:25.020Z,99.90
2022-12-24T00:44:52.842Z,99.90
2022-12-24T00:47:20.653Z,99.90
2022-12-24T00:49:48.492Z,99.90
2022-12-24T00:52:16.326Z,99.90
2022-12-24T00:54:45.477Z,99.90
2022-12-24T00:57:13.305Z,99.90
2022-12-24T00:59:41.149Z,99.90
2022-12-24T01:02:09.191Z,99.90
2022-12-24T01:04:54.878Z,99.90
2022-12-24T01:07:22.706Z,99.50
2022-12-24T01:09:51.871Z,99.90
2022-12-24T01:12:19.779Z,99.90
2022-12-24T01:14:47.682Z,99.90
2022-12-24T01:17:15.597Z,99.90
2022-12-24T01:19:43.474Z,99.90
2022-12-24T01:22:11.315Z,99.90
2022-12-24T01:24:39.162Z,99.30
2022-12-24T01:27:08.320Z,99.90
2022-12-24T01:29:36.181Z,99.90
2022-12-24T01:32:04.290Z,99.90
2022-12-24T01:34:32.262Z,99.90
2022-12-24T01:37:00.109Z,99.90
2022-12-24T01:39:27.938Z,99.90
2022-12-24T01:42:13.271Z,99.90
2022-12-24T01:44:44.389Z,99.90
2022-12-24T01:47:16.451Z,99.90
2022-12-24T01:49:47.977Z,99.90
2022-12-24T01:52:20.287Z,99.90
2022-12-24T01:54:51.446Z,99.90
2022-12-24T01:57:22.836Z,99.90
2022-12-24T01:59:56.448Z,99.90
2022-12-24T02:02:24.620Z,99.90
2022-12-24T02:04:58.503Z,99.90
2022-12-24T02:07:26.565Z,99.90
2022-12-24T02:09:57.639Z,99.90
2022-12-24T02:12:26.505Z,99.90
2022-12-24T02:14:56.221Z,99.60
2022-12-24T02:17:31.080Z,99.90
2022-12-24T02:20:37.363Z,99.50
2022-12-24T02:23:18.901Z,99.70
2022-12-24T02:26:07.947Z,99.50
2022-12-24T02:28:53.528Z,99.90
2022-12-24T02:31:27.487Z,99.10
2022-12-24T02:34:00.399Z,98.80
2022-12-24T02:36:33.228Z,99.90
2022-12-24T02:39:04.016Z,99.90
2022-12-24T02:41:49.918Z,99.10
2022-12-24T02:44:20.144Z,99.90
2022-12-24T02:46:50.884Z,99.90
2022-12-24T02:49:18.809Z,99.90
2022-12-24T02:51:46.618Z,99.90
2022-12-24T02:54:16.001Z,99.90
2022-12-24T02:57:00.207Z,99.70
2022-12-24T02:59:42.988Z,99.90
2022-12-24T03:02:23.328Z,99.90
2022-12-24T03:05:01.258Z,99.90
2022-12-24T03:07:34.850Z,99.90
2022-12-24T03:10:12.887Z,99.90
2022-12-24T03:12:44.868Z,99.90
2022-12-24T03:15:16.199Z,99.90
2022-12-24T03:17:49.128Z,99.90
2022-12-24T03:20:23.411Z,99.90
2022-12-24T03:22:51.633Z,99.90
2022-12-24T03:25:20.715Z,99.90
2022-12-24T03:27:49.261Z,99.90
2022-12-24T03:30:18.418Z,99.90
2022-12-24T03:32:48.258Z,99.90
2022-12-24T03:35:16.297Z,99.80
2022-12-24T03:37:44.157Z,99.20
2022-12-24T03:40:12.624Z,99.80
2022-12-24T03:42:40.470Z,99.90
2022-12-24T03:45:09.105Z,99.60
2022-12-24T03:47:37.113Z,99.50
2022-12-24T03:50:07.585Z,99.50
2022-12-24T03:52:35.422Z,99.30
2022-12-24T03:55:03.348Z,99.90
2022-12-24T03:57:31.214Z,99.40
2022-12-24T03:59:59.014Z,99.00
2022-12-24T04:02:27.031Z,99.30
2022-12-24T04:04:54.911Z,99.30
2022-12-24T04:07:24.097Z,97.90
2022-12-24T04:09:51.959Z,98.10
2022-12-24T04:12:19.765Z,99.60
2022-12-24T04:14:47.609Z,99.30
2022-12-24T04:17:15.463Z,98.60
2022-12-24T04:19:43.272Z,97.90
2022-12-24T04:22:11.135Z,98.00
2022-12-24T04:24:40.311Z,97.20
2022-12-24T04:27:08.165Z,98.50
2022-12-24T04:29:36.396Z,98.10
2022-12-24T04:32:04.438Z,98.10
2022-12-24T04:34:32.380Z,97.50
2022-12-24T04:37:00.252Z,98.20
2022-12-24T04:39:28.125Z,98.00
2022-12-24T04:41:57.294Z,97.90
2022-12-24T04:44:25.346Z,98.00
2022-12-24T04:46:53.158Z,97.70
2022-12-24T04:49:21.013Z,97.40
2022-12-24T04:51:48.824Z,97.60
2022-12-24T04:54:17.040Z,97.60
2022-12-24T04:56:44.868Z,97.10
2022-12-24T04:59:14.063Z,98.00
2022-12-24T05:01:41.968Z,97.50
2022-12-24T05:04:11.137Z,97.80
2022-12-24T05:06:38.979Z,97.50
2022-12-24T05:09:06.823Z,97.00
2022-12-24T05:11:34.673Z,97.70
2022-12-24T05:14:02.602Z,97.30
2022-12-24T05:16:31.846Z,98.00
2022-12-24T05:18:59.692Z,98.40
2022-12-24T05:21:27.737Z,98.40
2022-12-24T05:24:13.043Z,98.30
2022-12-24T05:26:43.874Z,98.20
2022-12-24T05:29:13.060Z,97.10
2022-12-24T05:31:44.935Z,97.80
2022-12-24T05:34:13.358Z,97.30
2022-12-24T05:36:41.859Z,98.10
2022-12-24T05:39:15.814Z,97.50
2022-12-24T05:41:44.295Z,98.00
2022-12-24T05:44:12.144Z,97.90
2022-12-24T05:46:40.123Z,97.40
2022-12-24T05:49:09.425Z,98.50
2022-12-24T05:51:37.588Z,98.60
2022-12-24T05:54:06.017Z,98.10
2022-12-24T05:56:34.273Z,97.90
2022-12-24T05:59:02.096Z,98.40
2022-12-24T06:01:30.313Z,98.20
2022-12-24T06:03:58.794Z,98.30
2022-12-24T06:06:29.723Z,98.30
2022-12-24T06:08:58.134Z,98.30
2022-12-24T06:11:28.404Z,98.20
2022-12-24T06:13:57.070Z,98.90
2022-12-24T06:16:26.315Z,98.80
2022-12-24T06:18:54.354Z,99.10
2022-12-24T06:21:22.536Z,99.20
2022-12-24T06:23:51.920Z,99.00
2022-12-24T06:26:21.254Z,99.10
2022-12-24T06:28:50.202Z,99.00
2022-12-24T06:31:20.538Z,99.20
2022-12-24T06:33:49.044Z,99.90
2022-12-24T06:36:19.105Z,99.70
2022-12-24T06:38:48.095Z,99.80
2022-12-24T06:41:18.671Z,99.00
2022-12-24T06:43:47.115Z,99.00
2022-12-24T06:46:15.515Z,98.90
2022-12-24T06:48:44.085Z,98.70
2022-12-24T06:51:12.254Z,98.90
2022-12-24T06:53:40.498Z,99.30
2022-12-24T06:56:09.985Z,99.30
2022-12-24T06:58:39.239Z,99.10
2022-12-24T07:01:08.955Z,98.90
2022-12-24T07:03:37.363Z,99.20
2022-12-24T07:06:05.865Z,99.20
2022-12-24T07:08:36.044Z,99.30
2022-12-24T07:11:03.923Z,99.10
2022-12-24T07:13:34.190Z,98.70
2022-12-24T07:16:05.323Z,98.90
2022-12-24T07:18:33.808Z,99.30
2022-12-24T07:21:04.082Z,99.60
2022-12-24T07:23:32.183Z,99.20
2022-12-24T07:26:02.431Z,99.70
2022-12-24T07:28:30.808Z,99.90
2022-12-24T07:30:59.986Z,99.80
2022-12-24T07:33:29.255Z,99.70
2022-12-24T07:36:01.572Z,99.80
2022-12-24T07:38:30.265Z,99.90
2022-12-24T07:40:58.180Z,99.50
2022-12-24T07:43:26.360Z,99.90
2022-12-24T07:45:56.563Z,99.90
2022-12-24T07:48:24.699Z,99.00
2022-12-24T07:50:53.940Z,99.70
2022-12-24T07:53:21.822Z,99.40
2022-12-24T07:55:49.694Z,99.20
2022-12-24T07:58:17.858Z,99.90
2022-12-24T08:00:45.725Z,99.90
2022-12-24T08:03:18.140Z,99.90
2022-12-24T08:05:46.802Z,99.90
2022-12-24T08:08:15.995Z,99.50
2022-12-24T08:10:45.460Z,99.10
2022-12-24T08:13:13.883Z,99.90
2022-12-24T08:15:41.691Z,99.90
2022-12-24T08:18:09.600Z,98.80
2022-12-24T08:20:39.831Z,99.40
2022-12-24T08:23:08.277Z,99.10
2022-12-24T08:25:37.899Z,99.90
2022-12-24T08:28:06.689Z,99.90
2022-12-24T08:30:34.920Z,99.90
2022-12-24T08:33:02.889Z,99.40
2022-12-24T08:35:30.818Z,99.70
2022-12-24T08:37:58.901Z,99.90
2022-12-24T08:40:26.796Z,99.30
2022-12-24T08:42:56.228Z,99.40
2022-12-24T08:45:24.208Z,99.40
2022-12-24T08:47:52.351Z,99.30
2022-12-24T08:50:20.291Z,98.80
2022-12-24T08:52:48.132Z,99.20
2022-12-24T08:55:17.336Z,98.20
2022-12-24T08:57:45.207Z,98.50
2022-12-24T09:00:15.805Z,98.30
2022-12-24T09:02:43.774Z,97.00
2022-12-24T09:05:11.996Z,97.60
2022-12-24T09:07:39.855Z,97.40
2022-12-24T09:10:08.955Z,98.00
2022-12-24T09:12:36.877Z,97.70
2022-12-24T09:15:07.994Z,97.40
2022-12-24T09:17:37.996Z,97.20
2022-12-24T09:20:07.353Z,97.20
2022-12-24T09:22:36.975Z,97.40
2022-12-24T09:25:05.362Z,97.20
2022-12-24T09:27:33.326Z,97.20
2022-12-24T09:30:01.144Z,97.30
2022-12-24T09:32:28.957Z,97.60
2022-12-24T09:34:58.147Z,97.10
2022-12-24T09:37:26.087Z,97.10
2022-12-24T09:39:53.911Z,96.90
2022-12-24T09:42:34.951Z,97.10
2022-12-24T09:45:08.876Z,96.70
2022-12-24T09:47:42.555Z,96.40
2022-12-24T09:50:31.661Z,97.20
2022-12-24T09:53:02.518Z,96.70
2022-12-24T09:55:34.462Z,97.10
2022-12-24T09:58:05.705Z,96.80
2022-12-24T10:00:36.825Z,97.20
2022-12-24T10:03:15.262Z,96.80
2022-12-24T10:05:52.438Z,97.20
2022-12-24T10:08:27.896Z,96.20
2022-12-24T10:11:01.064Z,95.90
2022-12-24T10:13:47.783Z,96.00
2022-12-24T10:16:23.356Z,95.30
2022-12-24T10:19:01.247Z,95.20
2022-12-24T10:21:42.355Z,95.60
2022-12-24T10:24:17.937Z,94.70
2022-12-24T10:26:47.584Z,96.10
2022-12-24T10:29:18.951Z,95.40
2022-12-24T10:31:54.463Z,95.50
2022-12-24T10:34:24.803Z,95.60
2022-12-24T10:36:53.981Z,96.00
2022-12-24T10:39:25.178Z,96.20
2022-12-24T10:41:55.181Z,96.10
2022-12-24T10:44:27.321Z,96.00
2022-12-24T10:46:55.523Z,95.90
2022-12-24T10:49:31.421Z,96.10
2022-12-24T10:52:05.560Z,95.00
2022-12-24T10:54:39.212Z,95.60
2022-12-24T10:57:26.137Z,95.90
2022-12-24T10:59:57.017Z,95.40
2022-12-24T11:02:28.920Z,95.30
2022-12-24T11:04:59.293Z,95.30
2022-12-24T11:07:30.170Z,95.10
2022-12-24T11:09:59.288Z,94.80
2022-12-24T11:12:32.235Z,95.10
2022-12-24T11:15:05.977Z,94.60
2022-12-24T11:17:34.943Z,94.30
2022-12-24T11:20:04.005Z,94.50
2022-12-24T11:22:34.974Z,94.80
2022-12-24T11:25:06.765Z,94.90
2022-12-24T11:27:44.091Z,94.70
2022-12-24T11:30:26.155Z,94.60
2022-12-24T11:33:21.292Z,94.00
2022-12-24T11:35:53.998Z,94.20
2022-12-24T11:38:25.900Z,94.30
2022-12-24T11:41:00.894Z,94.50
2022-12-24T11:43:44.330Z,94.60
2022-12-24T11:46:15.280Z,94.70
2022-12-24T11:48:43.201Z,94.70
2022-12-24T11:51:25.208Z,95.10
2022-12-24T11:54:01.884Z,94.30
2022-12-24T11:56:36.068Z,94.50
2022-12-24T11:59:13.492Z,93.90
2022-12-24T12:01:49.412Z,94.30
2022-12-24T12:04:21.569Z,94.10
2022-12-24T12:06:52.482Z,94.00
2022-12-24T12:09:25.662Z,93.60
2022-12-24T12:11:57.570Z,94.20
2022-12-24T12:14:31.223Z,94.60
2022-12-24T12:17:07.631Z,94.20
2022-12-24T12:19:43.053Z,94.40
2022-12-24T12:22:22.899Z,94.00
2022-12-24T12:24:54.692Z,94.90
2022-12-24T12:27:32.314Z,94.20
2022-12-24T12:30:03.190Z,92.50
2022-12-24T12:32:42.312Z,92.40
2022-12-24T12:35:22.186Z,92.10
2022-12-24T12:37:55.686Z,92.70
2022-12-24T12:40:38.991Z,92.70
2022-12-24T12:43:17.113Z,92.50
2022-12-24T12:45:54.046Z,92.40
2022-12-24T12:48:42.538Z,92.30
2022-12-24T12:51:16.492Z,92.20
2022-12-24T12:54:09.038Z,92.20
2022-12-24T12:56:39.885Z,92.20
2022-12-24T12:59:16.432Z,92.20
2022-12-24T13:01:50.596Z,92.20
2022-12-24T13:04:54.318Z,92.20
2022-12-24T13:07:52.145Z,92.10
2022-12-24T13:10:41.882Z,92.10
2022-12-24T13:13:40.033Z,92.20
2022-12-24T13:16:37.707Z,92.10
2022-12-24T13:19:19.369Z,92.20
2022-12-24T13:21:48.753Z,92.10
2022-12-24T13:24:19.775Z,92.10
2022-12-24T13:27:02.363Z,91.90
2022-12-24T13:29:41.259Z,91.80
2022-12-24T13:32:48.154Z,91.80
2022-12-24T13:35:38.322Z,91.60
2022-12-24T13:38:44.195Z,91.50
2022-12-24T13:41:58.173Z,91.40
2022-12-24T13:44:32.637Z,91.30
2022-12-24T13:47:30.174Z,91.40
2022-12-24T13:50:22.072Z,91.30
2022-12-24T13:52:53.553Z,91.30
2022-12-24T13:55:22.587Z,91.90
2022-12-24T13:57:59.486Z,98.00
2022-12-24T14:00:40.224Z,97.80
2022-12-24T14:03:23.563Z,97.80
2022-12-24T14:05:54.194Z,90.80
2022-12-24T14:08:44.537Z,90.60
2022-12-24T14:11:14.877Z,90.40
2022-12-24T14:14:27.799Z,90.50
2022-12-24T14:16:58.279Z,90.70
2022-12-24T14:19:37.414Z,90.40
2022-12-24T14:22:20.413Z,89.70
2022-12-24T14:24:54.077Z,90.40
2022-12-24T14:27:29.424Z,91.70
2022-12-24T14:30:05.984Z,91.80
2022-12-24T14:32:39.150Z,92.20
2022-12-24T14:35:15.424Z,92.90
2022-12-24T14:37:46.774Z,92.60
2022-12-24T14:40:18.821Z,93.30
2022-12-24T14:42:56.425Z,93.50
2022-12-24T14:45:34.697Z,93.60
2022-12-24T14:48:13.539Z,93.90
2022-12-24T14:50:52.634Z,93.90
2022-12-24T14:53:29.352Z,93.70
2022-12-24T14:55:58.697Z,93.60
2022-12-24T14:58:52.823Z,94.30
2022-12-24T15:01:37.420Z,94.20
2022-12-24T15:04:26.791Z,94.00
2022-12-24T15:15:21.184Z,94.40
2022-12-24T15:17:49.207Z,95.00
2022-12-24T15:20:19.925Z,96.10
2022-12-24T15:22:51.591Z,94.70
2022-12-24T15:25:21.809Z,93.50
2022-12-24T15:27:49.778Z,93.20
2022-12-24T15:30:21.455Z,92.70
2022-12-24T15:32:51.555Z,92.90
2022-12-24T15:35:34.177Z,92.90
2022-12-24T15:38:03.929Z,92.40
2022-12-24T15:40:33.183Z,92.50
2022-12-24T15:43:01.568Z,92.50
2022-12-24T15:45:33.123Z,92.80
2022-12-24T15:48:07.088Z,93.10
2022-12-24T15:50:37.073Z,92.90
2022-12-24T15:53:21.603Z,92.70
2022-12-24T15:56:04.078Z,92.70
2022-12-24T15:58:34.784Z,92.60
2022-12-24T16:01:19.431Z,92.50
2022-12-24T16:04:00.627Z,92.60
2022-12-24T16:06:29.141Z,92.80
2022-12-24T16:08:59.689Z,93.00
2022-12-24T16:11:35.336Z,92.90
2022-12-24T16:14:12.137Z,92.70
2022-12-24T16:16:43.791Z,93.00
2022-12-24T16:19:19.178Z,93.00
2022-12-24T16:21:52.993Z,93.30
2022-12-24T16:24:23.623Z,93.20
2022-12-24T16:26:52.086Z,93.30
2022-12-24T16:29:20.807Z,93.30
2022-12-24T16:31:52.611Z,93.40
2022-12-24T16:34:24.260Z,93.40
2022-12-24T16:36:52.269Z,93.50
2022-12-24T16:39:25.254Z,93.60
2022-12-24T16:42:08.177Z,93.10
2022-12-24T16:44:36.509Z,93.30
2022-12-24T16:47:07.679Z,93.70
2022-12-24T16:49:38.308Z,93.70
2022-12-24T16:52:06.482Z,93.70
2022-12-24T16:54:34.353Z,93.40
2022-12-24T16:57:03.008Z,93.40
2022-12-24T16:59:32.523Z,93.40
2022-12-24T17:02:00.498Z,93.20
2022-12-24T17:04:32.779Z,93.20
2022-12-24T17:07:01.053Z,93.10
2022-12-24T17:09:28.880Z,93.30
2022-12-24T17:11:56.727Z,93.20
2022-12-24T17:14:24.611Z,93.30
2022-12-24T17:16:52.412Z,93.50
2022-12-24T17:19:20.224Z,93.60
2022-12-24T17:21:50.119Z,93.70
2022-12-24T17:24:18.040Z,93.90
2022-12-24T17:26:45.996Z,93.90
2022-12-24T17:29:15.228Z,93.90
2022-12-24T17:31:43.320Z,93.90
2022-12-24T17:34:11.427Z,94.00
2022-12-24T17:36:40.092Z,94.00
2022-12-24T17:39:09.825Z,94.00
2022-12-24T17:41:37.650Z,94.00
2022-12-24T17:44:08.736Z,94.00
2022-12-24T17:46:36.612Z,93.90
2022-12-24T17:49:04.523Z,93.90
2022-12-24T17:51:33.368Z,93.80
2022-12-24T17:54:01.670Z,93.90
2022-12-24T17:56:31.488Z,93.90
2022-12-24T17:58:59.960Z,94.00
2022-12-24T18:01:30.596Z,93.90
2022-12-24T18:04:00.569Z,93.90
2022-12-24T18:06:28.924Z,94.00
2022-12-24T18:08:57.132Z,94.20
2022-12-24T18:11:27.719Z,94.10
2022-12-24T18:13:58.332Z,94.00
2022-12-24T18:16:29.015Z,94.00
2022-12-24T18:18:57.980Z,94.00
2022-12-24T18:21:28.331Z,94.20
2022-12-24T18:23:56.845Z,94.20
2022-12-24T18:26:25.682Z,94.30
2022-12-24T18:28:56.907Z,94.60
2022-12-24T18:31:26.684Z,94.20
2022-12-24T18:33:56.471Z,94.20
2022-12-24T18:36:24.760Z,94.10
2022-12-24T18:38:52.896Z,94.20
2022-12-24T18:41:22.932Z,94.20
2022-12-24T18:43:50.923Z,94.20
2022-12-24T18:46:22.242Z,94.10
2022-12-24T18:48:50.821Z,94.20
2022-12-24T18:51:21.931Z,94.20
2022-12-24T18:53:50.519Z,94.20
2022-12-24T18:56:20.630Z,94.20
2022-12-24T18:58:48.788Z,94.20
2022-12-24T19:01:18.745Z,94.30
2022-12-24T19:03:52.009Z,94.30
2022-12-24T19:06:21.014Z,94.10
2022-12-24T19:08:58.276Z,94.20
2022-12-24T19:11:27.022Z,94.30
2022-12-24T19:13:55.008Z,94.50
2022-12-24T19:16:23.054Z,94.20
2022-12-24T19:18:52.382Z,94.20
2022-12-24T19:21:20.261Z,94.20
2022-12-24T19:23:50.474Z,94.40
2022-12-24T19:26:21.278Z,94.10
2022-12-24T19:28:49.645Z,94.10
2022-12-24T19:31:18.931Z,93.70
2022-12-24T19:33:48.828Z,93.40
2022-12-24T19:36:20.684Z,93.40
2022-12-24T19:38:49.053Z,93.70
2022-12-24T19:41:19.185Z,93.80
2022-12-24T19:43:48.859Z,94.00
2022-12-24T19:46:19.221Z,94.00
2022-12-24T19:48:49.670Z,94.10
2022-12-24T19:51:19.389Z,94.20
2022-12-24T19:53:47.571Z,94.10
2022-12-24T19:56:16.593Z,94.10
2022-12-24T19:58:44.646Z,94.00
2022-12-24T20:01:15.835Z,94.10
2022-12-24T20:03:44.352Z,93.90
2022-12-24T20:06:12.436Z,93.90
2022-12-24T20:08:41.717Z,93.90
2022-12-24T20:11:11.510Z,93.90
2022-12-24T20:13:40.719Z,94.00
2022-12-24T20:16:10.687Z,93.70
2022-12-24T20:18:38.644Z,93.80
2022-12-24T20:21:08.746Z,93.90
2022-12-24T20:23:38.034Z,93.90
2022-12-24T20:26:08.728Z,93.80
2022-12-24T20:28:37.577Z,93.70
2022-12-24T20:31:11.935Z,94.00
2022-12-24T20:33:39.972Z,93.70
2022-12-24T20:36:08.590Z,93.80
2022-12-24T20:38:37.414Z,93.60
2022-12-24T20:41:09.568Z,93.70
2022-12-24T20:43:44.935Z,93.70
2022-12-24T20:46:16.111Z,93.80
2022-12-24T20:48:44.033Z,93.70
2022-12-24T20:51:22.714Z,93.60
2022-12-24T20:53:51.968Z,93.70
2022-12-24T20:56:21.246Z,93.60
2022-12-24T20:58:49.401Z,93.60
2022-12-24T21:01:19.223Z,93.80
2022-12-24T21:03:47.231Z,93.90
2022-12-24T21:06:17.594Z,94.00
2022-12-24T21:08:45.979Z,93.90
2022-12-24T21:11:31.573Z,94.30
2022-12-24T21:14:01.884Z,94.30
2022-12-24T21:16:31.279Z,94.20
2022-12-24T21:18:59.369Z,94.30
2022-12-24T21:21:27.310Z,94.20
2022-12-24T21:23:55.390Z,94.20
2022-12-24T21:26:23.560Z,94.00
2022-12-24T21:28:51.388Z,94.10
2022-12-24T21:31:20.915Z,94.20
2022-12-24T21:33:48.849Z,94.00
2022-12-24T21:36:18.019Z,94.20
2022-12-24T21:38:45.971Z,93.90
2022-12-24T21:41:17.080Z,94.00
2022-12-24T21:43:46.017Z,94.00
2022-12-24T21:46:15.520Z,94.00
2022-12-24T21:49:02.487Z,94.00
2022-12-24T21:51:30.634Z,94.00
2022-12-24T21:54:15.997Z,94.10
2022-12-24T21:57:01.562Z,94.10
2022-12-24T21:59:30.206Z,94.20
2022-12-24T22:01:58.262Z,94.10
2022-12-24T22:04:28.191Z,94.40
2022-12-24T22:07:13.383Z,94.40
2022-12-24T22:09:59.309Z,94.60
2022-12-24T22:12:31.974Z,94.90
2022-12-24T22:14:59.859Z,94.80
2022-12-24T22:17:28.845Z,95.00
2022-12-24T22:19:58.058Z,95.00
2022-12-24T22:22:26.038Z,95.10
2022-12-24T22:24:53.864Z,95.20
2022-12-24T22:27:21.705Z,95.30
2022-12-24T22:29:49.509Z,95.40
2022-12-24T22:32:17.419Z,95.50
2022-12-24T22:34:46.388Z,95.40
2022-12-24T22:37:15.865Z,95.30
2022-12-24T22:39:44.422Z,95.30
2022-12-24T22:42:12.305Z,95.40
2022-12-24T22:44:40.140Z,95.50
2022-12-24T22:47:08.056Z,95.50
2022-12-24T22:49:37.539Z,95.40
2022-12-24T22:52:05.569Z,95.60
2022-12-24T22:54:35.182Z,95.70
2022-12-24T22:57:03.024Z,95.60
2022-12-24T22:59:30.889Z,95.70
2022-12-24T23:01:58.917Z,95.90
2022-12-24T23:04:27.011Z,95.70
2022-12-24T23:06:54.911Z,95.60
2022-12-24T23:09:22.761Z,95.80
2022-12-24T23:11:51.953Z,95.90
2022-12-24T23:14:39.127Z,95.90
2022-12-24T23:17:07.643Z,96.10
2022-12-24T23:19:35.760Z,96.30
2022-12-24T23:22:05.728Z,96.40
2022-12-24T23:24:34.797Z,96.50
2022-12-24T23:27:04.040Z,97.10
2022-12-24T23:29:32.905Z,96.70
2022-12-24T23:32:00.934Z,96.20
2022-12-24T23:34:28.746Z,96.20
2022-12-24T23:36:56.579Z,96.10
2022-12-24T23:39:24.485Z,95.70
2022-12-24T23:41:52.441Z,95.70
2022-12-24T23:44:26.712Z,95.60
2022-12-24T23:46:58.109Z,95.70
2022-12-24T23:49:26.006Z,95.70
2022-12-24T23:51:53.813Z,95.70
2022-12-24T23:54:21.658Z,95.70
2022-12-24T23:56:49.522Z,95.60
2022-12-24T23:59:17.344Z,95.60
